Time;durP1;ratioP1;P1;durP2;ratioP2;P2;SDS_P1;SDS_P2;PMS_P1;PMS_P2;Temp;Humidity;BMP_temperature;BMP_pressure;BME280_temperature;BME280_humidity;BME280_pressure;Samples;Min_cycle;Max_cycle;Signal;HPM_P1;HPM_P2
2021/11/07 00:00:51;;;;;;;54.97;38.15;;;281.80;2278.40;;;;;;5051270;28;20024;-77
2021/11/07 00:11:36;;;;;;;56.72;41.80;;;281.90;2278.40;;;;;;5053254;28;20078;-77
2021/11/07 00:14:05;;;;;;;49.88;38.15;;;282.20;2278.40;;;;;;5053156;28;20025;-77
2021/11/07 00:16:34;;;;;;;53.08;37.85;;;282.30;2278.40;;;;;;5049716;28;20090;-77
2021/11/07 00:19:08;;;;;;;60.13;42.95;;;282.30;2278.40;;;;;;5049547;28;20105;-75
2021/11/07 00:21:44;;;;;;;50.15;36.45;;;281.90;2278.40;;;;;;5051409;28;20021;-76
2021/11/07 00:24:17;;;;;;;48.40;35.47;;;281.90;2278.40;;;;;;5051030;28;20526;-77
2021/11/07 00:29:34;;;;;;;56.15;40.42;;;282.00;2278.40;;;;;;5053017;28;20025;-76
2021/11/07 00:32:03;;;;;;;61.85;41.63;;;282.10;2278.40;;;;;;5051976;28;20040;-76
2021/11/07 00:37:03;;;;;;;51.38;38.35;;;281.90;2278.40;;;;;;5053188;28;20060;-77
2021/11/07 00:44:43;;;;;;;42.60;33.08;;;281.70;2278.40;;;;;;5053585;28;20031;-75
2021/11/07 00:49:46;;;;;;;42.80;32.08;;;281.90;2278.40;;;;;;5053481;28;20036;-78
2021/11/07 00:52:25;;;;;;;45.20;32.15;;;281.90;2278.40;;;;;;5053641;28;20013;-78
2021/11/07 00:55:39;;;;;;;51.78;34.45;;;281.90;2278.40;;;;;;5052037;28;20032;-80
2021/11/07 00:57:50;;;;;;;50.13;36.60;;;282.00;2278.40;;;;;;5052946;28;20029;-80
2021/11/07 01:02:59;;;;;;;47.47;34.50;;;282.00;2278.40;;;;;;5073229;28;20075;-80
2021/11/07 01:05:28;;;;;;;44.35;33.35;;;282.00;2278.40;;;;;;5074398;28;20025;-78
2021/11/07 01:07:56;;;;;;;44.08;32.35;;;282.00;2278.40;;;;;;5076910;28;20009;-80
2021/11/07 01:10:23;;;;;;;44.08;33.17;;;282.10;2278.40;;;;;;5075011;28;20021;-79
2021/11/07 01:12:49;;;;;;;46.65;34.67;;;282.10;2278.40;;;;;;5075133;28;20052;-79
2021/11/07 01:15:16;;;;;;;43.20;33.67;;;282.20;2278.40;;;;;;5070525;28;20035;-78
2021/11/07 01:17:42;;;;;;;47.20;32.80;;;282.10;2278.40;;;;;;5069844;28;20029;-80
2021/11/07 01:20:09;;;;;;;46.97;32.90;;;282.20;2278.40;;;;;;5073493;28;20032;-80
2021/11/07 01:22:57;;;;;;;45.20;33.85;;;282.10;2278.40;;;;;;5065173;28;20071;-80
2021/11/07 01:25:25;;;;;;;48.20;34.63;;;282.20;2278.40;;;;;;5067062;28;20024;-79
2021/11/07 01:27:52;;;;;;;43.10;33.75;;;282.10;2278.40;;;;;;5068454;28;20023;-79
2021/11/07 01:30:23;;;;;;;46.22;33.70;;;282.20;2278.40;;;;;;5073752;28;20021;-78
2021/11/07 01:32:59;;;;;;;48.08;33.60;;;282.10;2278.40;;;;;;5074024;28;20441;-80
2021/11/07 01:37:59;;;;;;;47.78;34.08;;;282.10;2278.40;;;;;;5072323;28;20025;-79
2021/11/07 01:40:32;;;;;;;62.78;47.22;;;282.00;2278.40;;;;;;5056305;28;20033;-80
2021/11/07 01:42:58;;;;;;;55.60;41.80;;;282.10;2278.40;;;;;;5055865;28;20403;-80
2021/11/07 01:45:33;;;;;;;49.88;38.42;;;282.10;2278.40;;;;;;5055449;28;20029;-79
2021/11/07 01:50:43;;;;;;;55.85;40.28;;;282.20;2278.40;;;;;;5057018;28;20054;-79
2021/11/07 01:53:23;;;;;;;53.75;39.33;;;281.80;2278.40;;;;;;5056565;28;20013;-80
2021/11/07 01:55:53;;;;;;;55.72;40.00;;;281.80;2278.40;;;;;;5056790;28;20338;-80
2021/11/07 01:58:19;;;;;;;53.15;37.30;;;281.60;2278.40;;;;;;5055179;28;20024;-80
2021/11/07 02:00:48;;;;;;;53.67;38.45;;;256.70;2252.80;;;;;;5055252;28;20116;-80
2021/11/07 02:03:14;;;;;;;55.25;39.13;;;256.90;2252.80;;;;;;5055147;28;20056;-80
2021/11/07 02:05:40;;;;;;;50.80;37.00;;;256.80;2252.80;;;;;;5055051;28;20078;-80
2021/11/07 02:08:07;;;;;;;54.25;37.20;;;256.60;2252.80;;;;;;5055473;28;20103;-80
2021/11/07 02:10:35;;;;;;;45.53;35.22;;;256.60;2252.80;;;;;;5056593;28;20021;-81
2021/11/07 02:13:01;;;;;;;47.15;34.58;;;256.60;2252.80;;;;;;5055014;28;20368;-80
2021/11/07 02:15:27;;;;;;;49.90;36.90;;;256.70;2252.80;;;;;;5055118;28;20028;-80
2021/11/07 02:17:53;;;;;;;47.85;35.65;;;256.60;2252.80;;;;;;5054688;28;20032;-80
2021/11/07 02:20:29;;;;;;;57.00;38.58;;;256.70;2252.80;;;;;;5054583;28;20075;-81
2021/11/07 02:22:56;;;;;;;51.65;36.45;;;256.60;2252.80;;;;;;5055069;28;20025;-80
2021/11/07 02:25:22;;;;;;;49.95;36.70;;;256.80;2252.80;;;;;;5055021;28;20115;-81
2021/11/07 02:27:48;;;;;;;48.88;34.75;;;256.70;2252.80;;;;;;5055847;28;20064;-80
2021/11/07 02:30:15;;;;;;;48.95;34.85;;;256.90;2252.80;;;;;;5055457;28;20048;-81
2021/11/07 02:32:46;;;;;;;52.85;37.97;;;282.00;2278.40;;;;;;5054260;28;20059;-81
2021/11/07 02:35:12;;;;;;;51.58;37.13;;;281.70;2278.40;;;;;;5054582;28;20017;-80
2021/11/07 02:37:39;;;;;;;52.83;38.47;;;281.70;2278.40;;;;;;5054511;28;20464;-81
2021/11/07 02:40:09;;;;;;;55.42;37.97;;;281.70;2278.40;;;;;;5053997;28;20017;-81
2021/11/07 02:42:36;;;;;;;57.55;38.97;;;281.90;2278.40;;;;;;5053526;28;20056;-81
2021/11/07 02:45:03;;;;;;;49.97;34.90;;;281.90;2278.40;;;;;;5054353;28;20033;-80
2021/11/07 02:47:29;;;;;;;43.15;32.15;;;281.90;2278.40;;;;;;5054030;28;20027;-79
2021/11/07 02:49:54;;;;;;;41.72;31.85;;;282.00;2278.40;;;;;;5054363;28;20021;-80
2021/11/07 02:52:20;;;;;;;44.72;32.20;;;282.10;2278.40;;;;;;5054296;28;20025;-81
2021/11/07 02:54:46;;;;;;;46.10;34.42;;;281.90;2278.40;;;;;;5053847;28;20017;-80
2021/11/07 02:57:18;;;;;;;44.30;33.05;;;281.60;2278.40;;;;;;5054384;28;20040;-81
2021/11/07 02:59:44;;;;;;;42.25;32.22;;;281.70;2278.40;;;;;;5054084;28;20124;-80
2021/11/07 03:02:12;;;;;;;41.50;32.75;;;281.90;2278.40;;;;;;5053554;28;20045;-81
2021/11/07 03:04:39;;;;;;;46.85;32.47;;;281.80;2278.40;;;;;;5054035;28;20143;-81
2021/11/07 03:07:06;;;;;;;44.17;32.33;;;281.80;2278.40;;;;;;5053914;28;20416;-81
2021/11/07 03:09:36;;;;;;;43.45;32.38;;;281.90;2278.40;;;;;;5054619;28;20365;-80
2021/11/07 03:12:04;;;;;;;44.88;31.33;;;281.90;2278.40;;;;;;5053804;28;20107;-80
2021/11/07 03:14:52;;;;;;;45.35;33.38;;;281.90;2278.40;;;;;;5053738;28;20016;-80
2021/11/07 03:17:21;;;;;;;45.15;33.20;;;281.90;2278.40;;;;;;5053639;28;20112;-81
2021/11/07 03:19:48;;;;;;;44.25;33.72;;;281.90;2278.40;;;;;;5053752;28;20027;-80
2021/11/07 03:22:19;;;;;;;41.03;30.80;;;281.90;2278.40;;;;;;5054603;28;20104;-81
2021/11/07 03:24:51;;;;;;;42.88;31.90;;;281.80;2278.40;;;;;;5053341;28;20113;-80
2021/11/07 03:27:26;;;;;;;47.15;32.53;;;282.00;2278.40;;;;;;5055214;28;20095;-81
2021/11/07 03:29:54;;;;;;;44.05;32.25;;;282.00;2278.40;;;;;;5053199;28;20021;-81
2021/11/07 03:32:30;;;;;;;43.75;31.70;;;281.70;2278.40;;;;;;5053448;28;20025;-80
2021/11/07 03:35:00;;;;;;;45.60;31.55;;;256.90;2252.80;;;;;;5053368;28;20025;-80
2021/11/07 03:37:29;;;;;;;46.63;33.72;;;281.70;2278.40;;;;;;5054344;28;20024;-80
2021/11/07 03:39:58;;;;;;;45.47;33.63;;;281.60;2278.40;;;;;;5053277;28;20361;-80
2021/11/07 03:42:26;;;;;;;48.90;34.50;;;256.80;2252.80;;;;;;5053192;28;20017;-80
2021/11/07 03:44:52;;;;;;;42.03;31.65;;;256.90;2252.80;;;;;;5052858;28;20452;-80
2021/11/07 03:47:19;;;;;;;39.83;31.50;;;281.60;2278.40;;;;;;5053229;28;20020;-80
2021/11/07 03:49:45;;;;;;;42.60;32.38;;;281.70;2278.40;;;;;;5052796;28;20040;-80
2021/11/07 03:52:12;;;;;;;43.70;31.85;;;281.60;2278.40;;;;;;5053211;28;20024;-80
2021/11/07 03:54:40;;;;;;;42.08;32.15;;;281.70;2278.40;;;;;;5052908;28;20047;-80
2021/11/07 03:57:07;;;;;;;38.97;30.58;;;281.60;2278.40;;;;;;5052433;28;20021;-80
2021/11/07 03:59:33;;;;;;;42.90;31.50;;;281.80;2278.40;;;;;;5053057;28;20028;-80
2021/11/07 04:01:59;;;;;;;40.72;31.52;;;281.80;2278.40;;;;;;5054147;28;20053;-80
2021/11/07 04:04:25;;;;;;;44.42;31.90;;;281.70;2278.40;;;;;;5052661;28;20379;-80
2021/11/07 04:06:51;;;;;;;41.05;32.63;;;281.80;2278.40;;;;;;5052676;28;20029;-80
2021/11/07 04:09:18;;;;;;;39.60;30.70;;;281.70;2278.40;;;;;;5052841;28;20025;-80
2021/11/07 04:11:44;;;;;;;48.58;34.70;;;282.00;2278.40;;;;;;5053613;28;20028;-80
2021/11/07 04:14:12;;;;;;;47.70;34.13;;;281.60;2278.40;;;;;;5054013;28;20029;-80
2021/11/07 04:16:39;;;;;;;49.58;34.55;;;281.60;2278.40;;;;;;5052693;28;20025;-80
2021/11/07 04:19:06;;;;;;;43.30;31.80;;;281.60;2278.40;;;;;;5052379;28;20368;-80
2021/11/07 04:21:33;;;;;;;42.65;32.95;;;281.70;2278.40;;;;;;5053844;28;20017;-80
2021/11/07 04:23:58;;;;;;;49.15;35.65;;;281.90;2278.40;;;;;;5052594;28;20063;-80
2021/11/07 04:26:25;;;;;;;52.95;37.10;;;281.70;2278.40;;;;;;5052311;28;20425;-80
2021/11/07 04:28:51;;;;;;;44.55;33.22;;;281.60;2278.40;;;;;;5052356;28;20071;-80
2021/11/07 04:31:17;;;;;;;47.92;33.60;;;256.70;2252.80;;;;;;5052611;28;20060;-80
2021/11/07 04:33:44;;;;;;;45.22;32.88;;;256.50;2252.80;;;;;;5053194;28;20386;-80
2021/11/07 04:36:10;;;;;;;43.83;32.13;;;256.50;2252.80;;;;;;5053650;28;20070;-80
2021/11/07 04:38:37;;;;;;;41.55;31.38;;;256.40;2252.80;;;;;;5052356;28;20032;-79
2021/11/07 04:41:05;;;;;;;42.70;30.58;;;256.60;2252.80;;;;;;5052358;28;20028;-80
2021/11/07 04:43:32;;;;;;;45.03;32.40;;;256.80;2252.80;;;;;;5053314;28;20017;-80
2021/11/07 04:45:58;;;;;;;40.65;30.85;;;256.70;2252.80;;;;;;5051953;28;20037;-80
2021/11/07 04:48:24;;;;;;;52.20;35.65;;;256.80;2252.80;;;;;;5052310;28;20346;-80
2021/11/07 04:50:50;;;;;;;42.10;29.88;;;256.70;2252.80;;;;;;5052262;28;20029;-80
2021/11/07 04:53:21;;;;;;;48.30;32.30;;;256.60;2252.80;;;;;;5052093;28;20021;-80
2021/11/07 04:55:47;;;;;;;48.53;31.15;;;256.60;2252.80;;;;;;5053466;28;20029;-80
2021/11/07 04:58:13;;;;;;;43.58;31.85;;;256.70;2252.80;;;;;;5052282;28;20025;-80
2021/11/07 05:00:41;;;;;;;51.35;32.33;;;256.60;2252.80;;;;;;5051972;28;20445;-80
2021/11/07 05:03:07;;;;;;;50.22;34.63;;;256.80;2252.80;;;;;;5052040;28;20155;-80
2021/11/07 05:05:35;;;;;;;43.80;32.80;;;256.90;2252.80;;;;;;5053108;28;20095;-80
2021/11/07 05:08:02;;;;;;;43.30;31.38;;;256.70;2252.80;;;;;;5055908;28;20395;-81
2021/11/07 05:10:28;;;;;;;50.13;33.10;;;281.80;2278.40;;;;;;5055879;28;20021;-80
2021/11/07 05:12:54;;;;;;;41.20;29.90;;;256.70;2252.80;;;;;;5056150;28;20119;-80
2021/11/07 05:15:20;;;;;;;48.45;32.67;;;256.60;2252.80;;;;;;5055701;28;20060;-80
2021/11/07 05:17:46;;;;;;;47.47;33.60;;;256.50;2252.80;;;;;;5056968;28;20021;-80
2021/11/07 05:20:14;;;;;;;44.45;32.72;;;256.50;2252.80;;;;;;5055998;28;20107;-80
2021/11/07 05:22:40;;;;;;;48.67;34.60;;;256.80;2252.80;;;;;;5055684;28;20017;-80
2021/11/07 05:25:10;;;;;;;55.38;40.15;;;256.70;2252.80;;;;;;5055536;28;20067;-80
2021/11/07 05:27:36;;;;;;;45.00;32.95;;;256.80;2252.80;;;;;;5055654;28;20024;-79
2021/11/07 05:30:05;;;;;;;47.50;34.40;;;256.90;2252.80;;;;;;5055748;28;20013;-80
2021/11/07 05:32:31;;;;;;;54.22;36.33;;;256.80;2252.80;;;;;;5055825;28;20029;-80
2021/11/07 05:34:57;;;;;;;54.15;38.60;;;256.80;2252.80;;;;;;5055451;28;20033;-80
2021/11/07 05:37:24;;;;;;;51.75;38.83;;;256.70;2252.80;;;;;;5055586;28;20108;-80
2021/11/07 05:39:50;;;;;;;54.65;38.85;;;256.80;2252.80;;;;;;5055584;28;20025;-80
2021/11/07 05:42:16;;;;;;;49.13;35.58;;;256.80;2252.80;;;;;;5055250;28;20025;-80
2021/11/07 05:44:42;;;;;;;45.20;33.28;;;256.90;2252.80;;;;;;5055367;28;20016;-80
2021/11/07 05:47:07;;;;;;;48.08;33.50;;;281.60;2278.40;;;;;;5055245;28;20049;-80
2021/11/07 05:49:33;;;;;;;52.85;38.08;;;281.70;2278.40;;;;;;5055106;28;20125;-80
2021/11/07 05:51:59;;;;;;;59.58;38.05;;;256.90;2252.80;;;;;;5055393;28;20024;-80
2021/11/07 05:54:25;;;;;;;52.10;37.35;;;281.60;2278.40;;;;;;5055333;28;20075;-80
2021/11/07 05:56:51;;;;;;;53.63;37.47;;;281.60;2278.40;;;;;;5054932;28;20032;-80
2021/11/07 05:59:17;;;;;;;68.30;45.22;;;281.70;2278.40;;;;;;5056531;28;20021;-80
2021/11/07 06:01:43;;;;;;;60.55;43.30;;;281.60;2278.40;;;;;;5054871;28;20496;-80
2021/11/07 06:04:09;;;;;;;88.53;51.83;;;281.60;2278.40;;;;;;5056699;28;20017;-80
2021/11/07 06:06:36;;;;;;;63.33;40.15;;;281.70;2278.40;;;;;;5055149;28;20080;-80
2021/11/07 06:09:02;;;;;;;59.70;40.65;;;281.70;2278.40;;;;;;5055075;28;20021;-80
2021/11/07 06:11:28;;;;;;;54.20;37.70;;;281.80;2278.40;;;;;;5054563;28;20021;-80
2021/11/07 06:13:55;;;;;;;44.70;32.42;;;281.80;2278.40;;;;;;5055087;28;20136;-80
2021/11/07 06:16:21;;;;;;;41.42;29.77;;;281.80;2278.40;;;;;;5054617;28;20365;-80
2021/11/07 06:18:47;;;;;;;42.55;29.58;;;281.90;2278.40;;;;;;5053387;28;20104;-81
2021/11/07 06:21:13;;;;;;;41.92;30.85;;;281.90;2278.40;;;;;;5054916;28;20104;-80
2021/11/07 06:23:39;;;;;;;51.33;34.38;;;281.90;2278.40;;;;;;5055853;28;20075;-80
2021/11/07 06:26:06;;;;;;;50.75;35.78;;;282.00;2278.40;;;;;;5054672;28;20115;-80
2021/11/07 06:28:32;;;;;;;50.72;35.88;;;282.10;2278.40;;;;;;5054718;28;20025;-80
2021/11/07 06:31:03;;;;;;;48.45;34.97;;;282.10;2278.40;;;;;;5054426;28;20091;-80
2021/11/07 06:33:29;;;;;;;43.00;32.42;;;282.10;2278.40;;;;;;5054631;28;20119;-80
2021/11/07 06:35:55;;;;;;;38.67;27.92;;;282.20;2278.40;;;;;;5054544;28;20107;-80
2021/11/07 06:38:21;;;;;;;35.47;26.40;;;282.30;2278.40;;;;;;5055729;28;20027;-80
2021/11/07 06:40:47;;;;;;;32.75;24.85;;;282.40;2278.40;;;;;;5054448;28;20024;-80
2021/11/07 06:43:14;;;;;;;34.97;26.25;;;282.50;2278.40;;;;;;5054435;28;20021;-80
2021/11/07 06:45:39;;;;;;;38.28;26.27;;;282.50;2278.40;;;;;;5054038;28;20033;-80
2021/11/07 06:48:06;;;;;;;41.55;28.25;;;282.50;2278.40;;;;;;5054394;28;20112;-80
2021/11/07 06:50:33;;;;;;;36.70;26.40;;;307.40;2304.00;;;;;;5054265;28;20020;-80
2021/11/07 06:52:59;;;;;;;72.45;48.10;;;282.50;2278.40;;;;;;5053941;28;20024;-80
2021/11/07 06:55:25;;;;;;;83.05;54.22;;;282.50;2278.40;;;;;;5054526;28;20102;-80
2021/11/07 06:57:51;;;;;;;71.05;46.85;;;282.50;2278.40;;;;;;5067081;28;20032;-78
2021/11/07 07:00:20;;;;;;;64.05;50.65;;;282.50;2278.40;;;;;;5077919;28;20052;-77
2021/11/07 07:02:47;;;;;;;67.43;49.95;;;307.20;2304.00;;;;;;5078329;28;20109;-81
2021/11/07 07:05:17;;;;;;;58.20;41.97;;;307.20;2304.00;;;;;;5076844;28;20025;-79
2021/11/07 07:07:47;;;;;;;65.55;44.63;;;307.30;2304.00;;;;;;5066028;28;20055;-80
2021/11/07 07:10:22;;;;;;;62.85;46.70;;;307.30;2304.00;;;;;;5054138;28;20021;-80
2021/11/07 07:13:15;;;;;;;66.78;47.58;;;307.30;2304.00;;;;;;5053503;28;20036;-81
2021/11/07 07:15:39;;;;;;;62.17;47.25;;;307.30;2304.00;;;;;;5054501;28;20481;-81
2021/11/07 07:18:28;;;;;;;62.28;45.33;;;307.30;2304.00;;;;;;5053928;28;20028;-80
2021/11/07 07:24:05;;;;;;;58.42;43.95;;;307.50;2304.00;;;;;;5055420;28;20349;-80
2021/11/07 07:29:10;;;;;;;63.17;43.40;;;307.50;2304.00;;;;;;5052823;28;20017;-80
2021/11/07 07:34:24;;;;;;;58.00;41.30;;;307.50;2304.00;;;;;;5053962;28;20051;-81
2021/11/07 07:36:50;;;;;;;47.35;37.13;;;307.50;2304.00;;;;;;5052627;28;20481;-78
2021/11/07 07:39:16;;;;;;;50.22;39.28;;;307.50;2304.00;;;;;;5052224;28;20039;-77
2021/11/07 07:41:43;;;;;;;57.50;44.55;;;307.60;2304.00;;;;;;5050673;28;20368;-77
2021/11/07 07:44:09;;;;;;;61.80;47.05;;;307.50;2304.00;;;;;;5053543;28;20024;-77
2021/11/07 07:46:42;;;;;;;55.95;40.97;;;307.60;2304.00;;;;;;5053395;28;20025;-76
2021/11/07 07:49:11;;;;;;;53.10;39.60;;;307.70;2304.00;;;;;;5052110;28;20075;-77
2021/11/07 07:51:36;;;;;;;46.83;35.33;;;307.60;2304.00;;;;;;5053234;28;20033;-77
2021/11/07 07:54:04;;;;;;;44.17;33.00;;;307.80;2304.00;;;;;;5052191;28;20036;-77
2021/11/07 07:56:31;;;;;;;48.45;33.13;;;307.90;2304.00;;;;;;5053282;28;20032;-77
2021/11/07 07:58:57;;;;;;;47.05;34.47;;;332.80;2329.60;;;;;;5053185;28;20116;-77
2021/11/07 08:01:24;;;;;;;64.90;45.47;;;308.00;2304.00;;;;;;5051662;28;20032;-77
2021/11/07 08:03:51;;;;;;;63.30;49.40;;;308.00;2304.00;;;;;;5053187;28;20035;-77
2021/11/07 08:06:18;;;;;;;53.03;40.20;;;308.00;2304.00;;;;;;5053909;28;20031;-77
2021/11/07 08:08:45;;;;;;;49.45;36.92;;;308.00;2304.00;;;;;;5048247;28;20125;-77
2021/11/07 08:11:11;;;;;;;82.40;63.65;;;308.10;2304.00;;;;;;5051978;28;20372;-77
2021/11/07 08:13:37;;;;;;;59.58;47.42;;;308.00;2304.00;;;;;;5051792;28;20029;-76
2021/11/07 08:16:03;;;;;;;72.47;53.22;;;307.90;2304.00;;;;;;5051500;28;20101;-77
2021/11/07 08:18:30;;;;;;;87.88;73.90;;;307.90;2304.00;;;;;;5051914;28;20441;-77
2021/11/07 08:20:55;;;;;;;86.95;68.45;;;307.90;2304.00;;;;;;5052779;28;20044;-77
2021/11/07 08:23:23;;;;;;;78.13;58.13;;;308.10;2304.00;;;;;;5051421;28;20453;-76
2021/11/07 08:25:50;;;;;;;73.07;55.53;;;308.10;2304.00;;;;;;5051602;28;20078;-77
2021/11/07 08:28:19;;;;;;;68.85;50.33;;;332.80;2329.60;;;;;;5051303;28;20048;-77
2021/11/07 08:30:48;;;;;;;62.65;43.67;;;332.80;2329.60;;;;;;5051226;28;20112;-77
2021/11/07 08:33:15;;;;;;;55.53;40.78;;;332.80;2329.60;;;;;;5051322;28;20365;-75
2021/11/07 08:35:43;;;;;;;72.97;51.15;;;332.90;2329.60;;;;;;5052381;28;20090;-76
2021/11/07 08:38:23;;;;;;;57.45;43.55;;;332.90;2329.60;;;;;;5053652;28;20017;-76
2021/11/07 08:40:52;;;;;;;54.90;42.63;;;333.00;2329.60;;;;;;5052561;28;20425;-75
2021/11/07 08:54:33;;;;;;;44.70;34.72;;;333.30;2329.60;;;;;;5053235;28;20048;-76
2021/11/07 09:10:20;;;;;;;44.55;36.90;;;333.50;2329.60;;;;;;5041460;28;20465;-76
2021/11/07 09:12:47;;;;;;;45.50;33.10;;;333.60;2329.60;;;;;;5052143;28;20372;-76
2021/11/07 09:15:16;;;;;;;38.40;28.25;;;333.60;2329.60;;;;;;5052805;28;20036;-76
2021/11/07 09:17:44;;;;;;;40.13;28.50;;;333.70;2329.60;;;;;;5053260;28;20024;-76
2021/11/07 09:20:16;;;;;;;50.53;31.38;;;333.70;2329.60;;;;;;5051990;28;20039;-77
2021/11/07 09:22:53;;;;;;;46.33;35.08;;;358.40;2329.60;;;;;;5053363;28;20442;-76
2021/11/07 09:25:32;;;;;;;52.85;39.38;;;333.70;2329.60;;;;;;5053228;28;20080;-76
2021/11/07 09:28:13;;;;;;;55.22;41.97;;;333.70;2329.60;;;;;;5053017;28;20017;-76
2021/11/07 09:30:48;;;;;;;47.22;36.80;;;358.40;2329.60;;;;;;5053030;28;20013;-76
2021/11/07 09:33:23;;;;;;;59.03;45.25;;;358.50;2329.60;;;;;;5051968;28;20017;-76
2021/11/07 09:39:15;;;;;;;52.10;36.58;;;358.70;2329.60;;;;;;5053058;28;20368;-76
2021/11/07 09:41:28;;;;;;;47.25;32.90;;;358.70;2329.60;;;;;;5048598;28;20032;-76
2021/11/07 09:46:36;;;;;;;54.35;38.15;;;358.80;2329.60;;;;;;5053065;28;20028;-77
2021/11/07 09:49:20;;;;;;;53.83;40.00;;;358.70;2329.60;;;;;;5052911;28;20044;-77
2021/11/07 09:51:54;;;;;;;53.13;38.72;;;358.90;2329.60;;;;;;5054054;28;20020;-77
2021/11/07 09:54:21;;;;;;;62.63;43.55;;;358.90;2329.60;;;;;;5055319;28;20025;-75
2021/11/07 09:56:52;;;;;;;43.42;31.58;;;358.90;2329.60;;;;;;5056524;28;20044;-76
2021/11/07 09:59:19;;;;;;;50.03;34.33;;;358.90;2329.60;;;;;;5055024;28;20047;-77
2021/11/07 10:01:46;;;;;;;43.45;32.42;;;359.00;2329.60;;;;;;5056265;28;20045;-76
2021/11/07 10:04:13;;;;;;;44.47;32.10;;;359.10;2329.60;;;;;;5054952;28;20028;-77
2021/11/07 10:06:44;;;;;;;52.22;40.00;;;359.20;2329.60;;;;;;5055123;28;20476;-79
2021/11/07 10:09:11;;;;;;;49.10;35.15;;;359.20;2329.60;;;;;;5056514;28;20021;-77
2021/11/07 10:12:15;;;;;;;46.35;34.45;;;384.00;2329.60;;;;;;5054854;28;20068;-78
2021/11/07 10:14:59;;;;;;;34.10;23.83;;;384.10;2329.60;;;;;;5054855;28;20025;-76
2021/11/07 10:17:40;;;;;;;60.88;41.97;;;384.10;2329.60;;;;;;5054614;28;20171;-77
2021/11/07 10:20:18;;;;;;;55.20;37.50;;;384.10;2329.60;;;;;;5056071;28;20487;-77
2021/11/07 10:22:49;;;;;;;59.30;43.50;;;384.10;2329.60;;;;;;5054964;28;20457;-77
2021/11/07 10:25:34;;;;;;;61.47;46.50;;;384.20;2329.60;;;;;;5054374;28;20029;-77
2021/11/07 10:28:01;;;;;;;56.53;39.25;;;384.30;2329.60;;;;;;5054953;28;20352;-80
2021/11/07 10:30:30;;;;;;;55.80;36.30;;;384.30;2329.60;;;;;;5054572;28;20023;-78
2021/11/07 10:33:12;;;;;;;47.28;36.15;;;384.30;2329.60;;;;;;5054283;28;20028;-77
2021/11/07 10:36:38;;;;;;;56.75;41.63;;;384.30;2329.60;;;;;;5054631;28;20025;-76
2021/11/07 10:44:36;;;;;;;48.22;38.88;;;384.40;2329.60;;;;;;5055775;28;20025;-76
2021/11/07 10:52:38;;;;;;;45.55;37.65;;;384.40;2329.60;;;;;;5055329;28;20020;-77
2021/11/07 10:55:06;;;;;;;80.25;64.40;;;384.40;2329.60;;;;;;5055108;28;20112;-77
2021/11/07 10:57:33;;;;;;;51.28;39.85;;;384.40;2329.60;;;;;;5055659;28;20029;-77
2021/11/07 11:00:07;;;;;;;69.63;52.45;;;384.50;2329.60;;;;;;5055181;28;20021;-77
2021/11/07 11:02:48;;;;;;;61.72;45.15;;;384.60;2329.60;;;;;;5053114;28;20048;-76
2021/11/07 11:05:21;;;;;;;75.43;55.70;;;384.60;2329.60;;;;;;5053704;28;20025;-77
2021/11/07 11:07:56;;;;;;;62.60;47.17;;;384.60;2329.60;;;;;;5054845;28;20049;-76
2021/11/07 11:10:33;;;;;;;68.95;47.95;;;384.70;2329.60;;;;;;5055233;28;20043;-76
2021/11/07 11:13:30;;;;;;;56.90;41.60;;;384.70;2329.60;;;;;;5055060;28;20017;-77
2021/11/07 11:16:20;;;;;;;67.68;43.85;;;384.60;2329.60;;;;;;5055088;28;20029;-78
2021/11/07 11:22:07;;;;;;;64.80;47.70;;;384.70;2329.60;;;;;;5054652;28;20032;-76
2021/11/07 11:32:32;;;;;;;61.88;43.33;;;384.80;2329.60;;;;;;5054782;28;20024;-78
2021/11/07 11:40:18;;;;;;;61.75;48.38;;;409.60;2355.20;;;;;;5054637;28;20035;-76
2021/11/07 11:45:35;;;;;;;76.85;55.80;;;409.70;2355.20;;;;;;5054285;28;20032;-77
2021/11/07 11:48:23;;;;;;;80.13;60.70;;;409.70;2355.20;;;;;;5054462;28;20174;-78
2021/11/07 11:56:42;;;;;;;84.93;65.53;;;409.80;2355.20;;;;;;5042559;28;20032;-77
2021/11/07 11:59:31;;;;;;;101.78;75.15;;;409.80;2355.20;;;;;;5053505;28;20040;-77
2021/11/07 12:02:25;;;;;;;99.50;77.65;;;409.90;2355.20;;;;;;5052778;28;20499;-77
2021/11/07 12:08:58;;;;;;;118.63;92.95;;;409.80;2355.20;;;;;;5054143;28;20368;-76
2021/11/07 12:11:19;;;;;;;138.40;104.07;;;409.90;2355.20;;;;;;5049248;28;20053;-76
2021/11/07 12:13:52;;;;;;;149.07;112.87;;;410.00;2355.20;;;;;;5052445;28;20123;-77
2021/11/07 12:16:51;;;;;;;155.95;117.70;;;410.00;2355.20;;;;;;5052607;28;20056;-76
2021/11/07 12:19:19;;;;;;;185.75;132.18;;;410.00;2355.20;;;;;;5052289;28;20377;-76
2021/11/07 12:21:50;;;;;;;177.57;129.25;;;410.10;2355.20;;;;;;5053885;28;20020;-77
2021/11/07 12:24:23;;;;;;;155.68;110.95;;;410.10;2355.20;;;;;;5052277;28;20013;-76
2021/11/07 12:26:50;;;;;;;213.80;151.80;;;410.20;2355.20;;;;;;5053393;28;20346;-79
2021/11/07 12:29:43;;;;;;;215.63;144.52;;;410.20;2355.20;;;;;;5052505;28;20087;-76
2021/11/07 12:32:11;;;;;;;133.68;92.55;;;410.20;2355.20;;;;;;5050412;28;20028;-77
2021/11/07 12:35:20;;;;;;;110.60;77.38;;;410.20;2355.20;;;;;;5052409;28;20021;-77
2021/11/07 12:40:45;;;;;;;79.95;57.15;;;410.50;2355.20;;;;;;5053907;28;20431;-77
2021/11/07 12:43:16;;;;;;;69.32;49.83;;;435.30;2355.20;;;;;;5052343;28;20032;-77
2021/11/07 12:45:46;;;;;;;63.53;46.22;;;435.60;2355.20;;;;;;5053049;28;20115;-77
2021/11/07 12:48:34;;;;;;;73.18;53.20;;;436.00;2355.20;;;;;;5052263;28;20377;-77
2021/11/07 12:51:01;;;;;;;63.70;47.40;;;460.90;2380.80;;;;;;5053371;28;20028;-77
2021/11/07 12:53:48;;;;;;;69.10;51.78;;;461.20;2380.80;;;;;;5051693;28;20061;-77
2021/11/07 12:56:49;;;;;;;60.15;45.38;;;461.40;2380.80;;;;;;5052074;28;20028;-77
2021/11/07 12:59:37;;;;;;;77.85;56.35;;;461.40;2380.80;;;;;;5043641;28;20039;-78
2021/11/07 13:02:17;;;;;;;78.43;58.95;;;461.20;2380.80;;;;;;5045477;28;20060;-78
2021/11/07 13:05:01;;;;;;;59.28;44.90;;;461.00;2380.80;;;;;;5053474;28;20021;-79
2021/11/07 13:07:40;;;;;;;63.40;48.95;;;460.90;2380.80;;;;;;5052025;28;20068;-78
2021/11/07 13:10:12;;;;;;;57.28;46.92;;;460.80;2380.80;;;;;;5053492;28;20025;-78
2021/11/07 13:12:44;;;;;;;62.50;49.30;;;460.80;2380.80;;;;;;5052383;28;20020;-78
2021/11/07 13:15:35;;;;;;;80.85;52.72;;;436.10;2355.20;;;;;;5053562;28;20021;-78
2021/11/07 13:18:46;;;;;;;73.28;52.50;;;436.10;2355.20;;;;;;5051009;28;20024;-77
2021/11/07 13:21:40;;;;;;;73.55;54.88;;;436.10;2355.20;;;;;;5050912;28;20028;-78
2021/11/07 13:32:36;;;;;;;71.50;55.75;;;460.80;2380.80;;;;;;5055103;28;20087;-78
2021/11/07 13:35:14;;;;;;;68.32;53.95;;;460.80;2380.80;;;;;;5054609;28;20025;-78
2021/11/07 13:37:57;;;;;;;59.85;46.50;;;460.90;2380.80;;;;;;5056018;28;20021;-77
2021/11/07 13:40:26;;;;;;;;;;;460.90;2380.80;;;;;;5055894;28;20079;-79
2021/11/07 13:42:53;;;;;;;64.68;49.85;;;460.80;2380.80;;;;;;5054522;28;19954;-78
2021/11/07 13:45:26;;;;;;;64.25;44.58;;;460.80;2380.80;;;;;;5054348;28;20055;-77
2021/11/07 13:47:53;;;;;;;67.97;48.67;;;436.10;2355.20;;;;;;5054232;28;20063;-79
2021/11/07 13:50:22;;;;;;;63.88;46.25;;;436.10;2355.20;;;;;;5054244;28;20021;-78
2021/11/07 13:52:52;;;;;;;68.82;48.70;;;436.10;2355.20;;;;;;5054204;28;20021;-78
2021/11/07 13:55:25;;;;;;;55.38;41.58;;;436.00;2355.20;;;;;;5053757;28;20055;-77
2021/11/07 13:57:51;;;;;;;61.42;45.28;;;436.00;2355.20;;;;;;5054434;28;20029;-77
2021/11/07 14:00:22;;;;;;;54.95;39.40;;;435.90;2355.20;;;;;;5054340;28;20017;-77
2021/11/07 14:02:51;;;;;;;55.83;42.08;;;435.90;2355.20;;;;;;5054650;28;20044;-77
2021/11/07 14:05:18;;;;;;;64.07;47.70;;;435.90;2355.20;;;;;;5054283;28;20048;-77
2021/11/07 14:07:57;;;;;;;64.57;47.65;;;435.80;2355.20;;;;;;5055788;28;20031;-76
2021/11/07 14:10:26;;;;;;;68.30;49.65;;;435.80;2355.20;;;;;;5052129;28;20020;-76
2021/11/07 14:12:57;;;;;;;73.30;53.35;;;435.80;2355.20;;;;;;5054229;28;20484;-76
2021/11/07 14:15:35;;;;;;;72.53;52.60;;;435.80;2355.20;;;;;;5055019;28;20021;-76